Time;durP1;ratioP1;P1;durP2;ratioP2;P2;SDS_P1;SDS_P2;PMS_P1;PMS_P2;Temp;Humidity;BMP_temperature;BMP_pressure;BME280_temperature;BME280_humidity;BME280_pressure;Samples;Min_cycle;Max_cycle;Signal;HPM_P1;HPM_P2
2023/12/06 00:01:27;;;;;;;3.60;3.30;;;22.50;55.50;;;;;;5035738;28;20451;-89
2023/12/06 00:03:55;;;;;;;3.70;3.07;;;22.50;55.60;;;;;;5035892;28;20430;-85
2023/12/06 00:06:22;;;;;;;3.33;3.13;;;22.50;55.60;;;;;;5035774;28;20443;-88
2023/12/06 00:08:48;;;;;;;4.50;3.47;;;22.50;55.60;;;;;;5035687;28;20434;-85
2023/12/06 00:11:15;;;;;;;3.70;3.40;;;22.50;55.60;;;;;;5035781;28;20438;-89
2023/12/06 00:13:42;;;;;;;3.70;3.37;;;22.50;55.60;;;;;;5035564;28;20438;-90
2023/12/06 00:16:09;;;;;;;3.23;2.93;;;22.40;55.50;;;;;;5035576;28;20438;-89
2023/12/06 00:18:35;;;;;;;3.03;2.73;;;22.50;55.60;;;;;;5035548;28;20515;-88
2023/12/06 00:21:04;;;;;;;3.43;3.20;;;22.40;55.60;;;;;;5035606;28;20785;-85
2023/12/06 00:23:31;;;;;;;3.43;3.13;;;22.40;55.60;;;;;;5035372;28;20548;-90
2023/12/06 00:25:57;;;;;;;3.93;2.93;;;22.40;55.50;;;;;;5035337;28;20442;-85
2023/12/06 00:28:24;;;;;;;2.90;2.60;;;22.40;55.60;;;;;;5035171;28;20803;-85
2023/12/06 00:30:51;;;;;;;2.63;2.43;;;22.40;55.70;;;;;;5034780;28;21021;-85
2023/12/06 00:33:18;;;;;;;3.30;3.00;;;22.40;55.60;;;;;;5035101;28;20462;-88
2023/12/06 00:35:45;;;;;;;2.83;2.63;;;22.30;55.50;;;;;;5035236;28;20426;-84
2023/12/06 00:38:14;;;;;;;3.47;3.17;;;22.30;55.60;;;;;;5035156;28;20441;-85
2023/12/06 00:40:40;;;;;;;2.90;2.57;;;22.30;55.60;;;;;;5034994;28;20439;-85
2023/12/06 00:43:07;;;;;;;3.40;3.10;;;22.30;55.60;;;;;;5035236;28;20441;-85
2023/12/06 00:45:34;;;;;;;3.10;2.80;;;22.30;55.60;;;;;;5034962;28;20480;-85
2023/12/06 00:48:01;;;;;;;4.10;3.13;;;22.30;55.70;;;;;;5034782;28;20449;-85
2023/12/06 00:50:27;;;;;;;2.80;2.60;;;22.30;55.70;;;;;;5034721;28;20478;-85
2023/12/06 00:52:53;;;;;;;3.67;3.00;;;22.30;55.80;;;;;;5034850;28;20464;-85
2023/12/06 00:55:22;;;;;;;3.33;2.70;;;22.30;56.40;;;;;;5034685;28;20195;-85
2023/12/06 00:57:48;;;;;;;3.17;2.97;;;22.20;55.70;;;;;;5034509;28;20956;-89
2023/12/06 01:00:16;;;;;;;3.73;3.30;;;22.20;55.70;;;;;;5034586;28;20442;-85
2023/12/06 01:02:43;;;;;;;3.20;2.90;;;22.20;55.70;;;;;;5034559;28;20472;-85
2023/12/06 01:05:10;;;;;;;3.20;3.00;;;22.30;55.80;;;;;;5034580;28;20430;-85
2023/12/06 01:07:37;;;;;;;3.20;2.90;;;22.30;55.70;;;;;;5034484;28;20500;-90
2023/12/06 01:10:04;;;;;;;3.13;2.83;;;22.20;56.20;;;;;;5034519;28;20469;-90
2023/12/06 01:12:32;;;;;;;4.60;2.80;;;22.20;55.60;;;;;;5034474;28;20797;-85
2023/12/06 01:14:59;;;;;;;3.30;2.30;;;22.30;55.70;;;;;;5034391;28;20442;-85
2023/12/06 01:17:26;;;;;;;2.77;2.57;;;22.40;55.80;;;;;;5034026;28;20449;-89
2023/12/06 01:19:52;;;;;;;3.10;2.80;;;22.30;55.70;;;;;;5033519;28;20513;-85
2023/12/06 01:22:19;;;;;;;2.73;2.53;;;22.20;55.60;;;;;;5032344;28;20442;-85
2023/12/06 01:24:48;;;;;;;3.10;2.90;;;22.30;55.60;;;;;;5033907;28;20438;-85
2023/12/06 01:27:15;;;;;;;2.70;2.50;;;22.30;55.70;;;;;;5033765;28;20443;-85
2023/12/06 01:29:43;;;;;;;2.90;2.60;;;22.30;55.70;;;;;;5033673;28;20482;-85
2023/12/06 01:32:10;;;;;;;2.80;2.50;;;22.30;55.60;;;;;;5033511;28;20462;-85
2023/12/06 01:34:36;;;;;;;2.57;2.37;;;22.30;55.50;;;;;;5033872;28;20438;-90
2023/12/06 01:37:03;;;;;;;2.87;2.67;;;22.30;55.60;;;;;;5034205;28;20434;-85
2023/12/06 01:39:30;;;;;;;3.23;2.93;;;22.30;55.60;;;;;;5033912;28;20434;-85
2023/12/06 01:41:57;;;;;;;2.60;2.40;;;22.30;55.60;;;;;;5033523;28;20438;-89
2023/12/06 01:44:24;;;;;;;2.93;2.70;;;22.30;55.60;;;;;;5033008;28;20470;-85
2023/12/06 01:46:53;;;;;;;2.23;2.03;;;22.30;55.50;;;;;;5033518;28;20435;-85
2023/12/06 01:49:20;;;;;;;2.83;2.63;;;22.30;55.60;;;;;;5033696;28;20525;-89
2023/12/06 01:51:47;;;;;;;2.57;2.37;;;22.30;55.60;;;;;;5033600;28;20493;-85
2023/12/06 01:54:14;;;;;;;2.50;2.30;;;22.30;55.50;;;;;;5033735;28;20449;-85
2023/12/06 01:56:44;;;;;;;2.47;2.27;;;22.30;55.60;;;;;;5033624;28;20438;-89
2023/12/06 01:59:12;;;;;;;2.63;2.43;;;22.30;55.60;;;;;;5033731;28;20444;-85
2023/12/06 02:01:40;;;;;;;2.30;2.10;;;22.30;55.50;;;;;;5033515;28;20468;-85
2023/12/06 02:04:08;;;;;;;2.47;2.27;;;22.30;55.50;;;;;;5033512;28;20497;-89
2023/12/06 02:06:35;;;;;;;2.43;2.23;;;22.30;55.50;;;;;;5033700;28;20452;-89
2023/12/06 02:09:03;;;;;;;2.80;2.60;;;22.30;55.50;;;;;;5033485;28;20937;-85
2023/12/06 02:11:30;;;;;;;2.83;2.43;;;22.30;55.60;;;;;;5034637;28;21086;-85
2023/12/06 02:13:57;;;;;;;3.20;2.90;;;22.30;55.40;;;;;;5040380;28;20525;-84
2023/12/06 02:16:24;;;;;;;2.83;2.60;;;22.30;55.50;;;;;;5033852;28;20441;-90
2023/12/06 02:18:51;;;;;;;3.10;2.10;;;22.30;55.40;;;;;;5033440;28;20933;-90
2023/12/06 02:21:19;;;;;;;3.03;2.83;;;22.30;55.50;;;;;;5033543;28;20442;-89
2023/12/06 02:23:47;;;;;;;3.00;2.73;;;22.30;55.50;;;;;;5033442;28;20430;-89
2023/12/06 02:26:15;;;;;;;2.90;2.70;;;22.30;55.40;;;;;;5033650;28;20842;-85
2023/12/06 02:28:42;;;;;;;2.50;2.30;;;22.30;55.40;;;;;;5033324;28;20525;-85
2023/12/06 02:31:09;;;;;;;2.37;2.17;;;22.30;55.40;;;;;;5033317;28;20878;-85
2023/12/06 02:33:37;;;;;;;2.47;2.37;;;22.30;55.40;;;;;;5033372;28;20921;-89
2023/12/06 02:36:05;;;;;;;2.27;2.10;;;22.30;55.50;;;;;;5033293;28;20445;-90
2023/12/06 02:38:33;;;;;;;2.27;2.07;;;22.30;55.40;;;;;;5033120;28;20434;-85
2023/12/06 02:41:02;;;;;;;2.40;2.20;;;22.30;55.50;;;;;;5033242;28;20937;-89
2023/12/06 02:43:31;;;;;;;2.20;2.10;;;22.30;55.50;;;;;;5033103;28;20453;-85
2023/12/06 02:45:58;;;;;;;2.10;1.87;;;22.20;55.40;;;;;;5033069;28;20500;-85
2023/12/06 02:48:25;;;;;;;2.50;2.30;;;22.30;56.00;;;;;;5033151;28;20457;-85
2023/12/06 02:50:52;;;;;;;2.20;2.10;;;22.30;55.40;;;;;;5032927;28;20485;-89
2023/12/06 02:53:18;;;;;;;2.20;2.10;;;22.30;55.30;;;;;;5033092;28;20478;-89
2023/12/06 02:55:45;;;;;;;2.90;2.60;;;22.30;55.40;;;;;;5035624;28;20948;-89
2023/12/06 02:58:12;;;;;;;2.40;2.20;;;22.30;55.40;;;;;;5036821;28;20434;-90
2023/12/06 03:00:40;;;;;;;2.27;2.13;;;22.30;55.40;;;;;;5036985;28;20452;-90
2023/12/06 03:03:07;;;;;;;2.03;1.93;;;22.30;55.40;;;;;;5036928;28;20458;-88
2023/12/06 03:05:33;;;;;;;2.23;2.03;;;22.30;55.40;;;;;;5036706;28;20440;-90
2023/12/06 03:08:00;;;;;;;2.40;2.20;;;22.20;55.20;;;;;;5036712;28;20438;-84
2023/12/06 03:10:27;;;;;;;2.27;2.07;;;22.30;55.30;;;;;;5036539;28;20485;-90
2023/12/06 03:12:54;;;;;;;2.20;2.10;;;22.30;55.40;;;;;;5036484;28;20438;-90
2023/12/06 03:15:20;;;;;;;2.30;2.10;;;22.40;55.40;;;;;;5036763;28;20435;-87
2023/12/06 03:17:49;;;;;;;2.40;2.20;;;22.20;55.30;;;;;;5036449;28;20438;-89
2023/12/06 03:20:16;;;;;;;2.27;2.07;;;22.40;55.50;;;;;;5036252;28;20941;-88
2023/12/06 03:22:42;;;;;;;1.80;1.70;;;22.20;55.30;;;;;;5036370;28;20438;-90
2023/12/06 03:25:09;;;;;;;2.13;2.00;;;22.30;55.40;;;;;;5036506;28;20430;-90
2023/12/06 03:27:36;;;;;;;2.20;2.10;;;22.20;55.30;;;;;;5036402;28;20437;-90
2023/12/06 03:30:03;;;;;;;2.23;2.03;;;22.20;55.30;;;;;;5036182;28;20444;-89
2023/12/06 03:32:30;;;;;;;2.40;2.27;;;22.20;55.20;;;;;;5036112;28;20458;-84
2023/12/06 03:34:58;;;;;;;2.70;2.50;;;22.20;55.20;;;;;;5036458;28;20443;-84
2023/12/06 03:37:25;;;;;;;2.10;1.83;;;22.20;55.30;;;;;;5035990;28;20435;-85
2023/12/06 03:39:51;;;;;;;2.40;2.00;;;22.20;55.30;;;;;;5036082;28;20448;-87
2023/12/06 03:42:18;;;;;;;2.37;2.17;;;22.20;55.20;;;;;;5036059;28;20442;-85
2023/12/06 03:44:45;;;;;;;2.40;2.20;;;22.20;55.30;;;;;;5035889;28;20478;-85
2023/12/06 03:47:12;;;;;;;2.23;2.03;;;22.20;55.30;;;;;;5035848;28;20932;-85
2023/12/06 03:49:38;;;;;;;2.30;2.10;;;22.20;55.20;;;;;;5035772;28;20457;-85
2023/12/06 03:52:07;;;;;;;2.30;2.13;;;22.20;55.20;;;;;;5035858;28;20508;-90
2023/12/06 03:54:34;;;;;;;2.37;2.17;;;22.20;55.20;;;;;;5035714;28;20451;-89
2023/12/06 03:57:01;;;;;;;2.40;2.20;;;22.20;55.30;;;;;;5035764;28;20443;-85
2023/12/06 03:59:27;;;;;;;2.20;2.00;;;22.20;55.30;;;;;;5035935;28;20435;-89
2023/12/06 04:01:54;;;;;;;2.70;2.37;;;22.20;55.30;;;;;;5035331;28;20463;-90
2023/12/06 04:04:21;;;;;;;3.10;2.37;;;22.20;55.20;;;;;;5035556;28;20442;-89
2023/12/06 04:06:48;;;;;;;2.27;2.17;;;22.20;55.20;;;;;;5035027;28;20448;-85
2023/12/06 04:09:16;;;;;;;2.80;2.40;;;22.20;55.20;;;;;;5035588;28;20434;-90
2023/12/06 04:11:43;;;;;;;2.53;2.33;;;22.20;55.10;;;;;;5035423;28;20485;-90
2023/12/06 04:14:09;;;;;;;2.63;2.47;;;22.20;55.20;;;;;;5035498;28;20477;-90
2023/12/06 04:16:37;;;;;;;2.27;2.10;;;22.30;55.30;;;;;;5035540;28;20440;-89
2023/12/06 04:19:03;;;;;;;2.50;2.30;;;22.20;55.20;;;;;;5035214;28;20434;-85
2023/12/06 04:21:30;;;;;;;2.47;2.27;;;22.20;55.10;;;;;;5035511;28;20465;-89
2023/12/06 04:23:57;;;;;;;2.17;1.97;;;22.20;55.20;;;;;;5035492;28;20434;-86
2023/12/06 04:26:25;;;;;;;2.03;1.93;;;22.20;55.20;;;;;;5035554;28;20803;-89
2023/12/06 04:28:52;;;;;;;2.90;2.70;;;22.20;55.20;;;;;;5044961;28;20430;-88
2023/12/06 04:31:19;;;;;;;3.00;2.60;;;22.10;55.10;;;;;;5042385;28;20500;-89
2023/12/06 04:33:46;;;;;;;2.03;1.83;;;22.20;55.20;;;;;;5035270;28;20444;-85
2023/12/06 04:36:13;;;;;;;2.53;2.33;;;22.10;55.20;;;;;;5035193;28;20485;-90
2023/12/06 04:38:40;;;;;;;2.93;2.70;;;22.10;55.20;;;;;;5035245;28;20445;-85
2023/12/06 04:41:07;;;;;;;2.20;2.10;;;22.10;55.20;;;;;;5034849;28;20453;-85
2023/12/06 04:43:35;;;;;;;2.70;2.50;;;22.10;55.10;;;;;;5034961;28;20773;-85
2023/12/06 04:46:02;;;;;;;2.20;2.00;;;22.10;55.10;;;;;;5034762;28;20474;-85
2023/12/06 04:48:28;;;;;;;2.47;2.27;;;22.10;55.10;;;;;;5034941;28;20446;-90
2023/12/06 04:50:55;;;;;;;2.70;2.50;;;22.20;55.20;;;;;;5034731;28;20486;-90
2023/12/06 04:53:22;;;;;;;2.30;2.10;;;22.20;55.20;;;;;;5034736;28;20442;-89
2023/12/06 04:55:49;;;;;;;2.77;2.40;;;22.20;55.20;;;;;;5034882;28;20440;-84
2023/12/06 04:58:15;;;;;;;2.80;2.60;;;22.20;55.20;;;;;;5034527;28;20431;-85
2023/12/06 05:00:44;;;;;;;2.17;2.03;;;22.20;55.20;;;;;;5034955;28;20450;-85
2023/12/06 05:03:11;;;;;;;2.70;2.30;;;22.20;55.10;;;;;;5034579;28;20446;-85
2023/12/06 05:05:37;;;;;;;2.50;2.30;;;22.20;55.10;;;;;;5034533;28;21007;-90
2023/12/06 05:08:05;;;;;;;2.43;2.23;;;22.20;55.00;;;;;;5034565;28;20877;-85
2023/12/06 05:10:31;;;;;;;2.30;2.10;;;22.20;55.00;;;;;;5034461;28;20492;-85
2023/12/06 05:12:59;;;;;;;2.60;2.30;;;22.20;55.00;;;;;;5034387;28;20441;-85
2023/12/06 05:15:26;;;;;;;2.40;2.20;;;22.20;55.00;;;;;;5034323;28;20443;-89
2023/12/06 05:17:54;;;;;;;2.90;2.70;;;22.20;55.00;;;;;;5033700;28;20434;-85
2023/12/06 05:20:22;;;;;;;2.47;2.27;;;22.20;55.00;;;;;;5034204;28;20542;-90
2023/12/06 05:22:48;;;;;;;2.47;2.27;;;22.20;55.00;;;;;;5034143;28;20434;-86
2023/12/06 05:25:15;;;;;;;2.57;2.37;;;22.20;55.00;;;;;;5034134;28;20438;-85
2023/12/06 05:27:42;;;;;;;2.73;2.53;;;22.30;55.00;;;;;;5034003;28;20438;-90
2023/12/06 05:30:10;;;;;;;2.30;2.10;;;22.20;54.90;;;;;;5034142;28;20426;-89
2023/12/06 05:32:37;;;;;;;2.33;2.23;;;22.30;55.00;;;;;;5033756;28;20491;-87
2023/12/06 05:35:06;;;;;;;2.50;2.30;;;22.30;55.00;;;;;;5033985;28;20446;-90
2023/12/06 05:37:33;;;;;;;2.30;2.10;;;22.30;55.00;;;;;;5033852;28;20441;-85
2023/12/06 05:40:00;;;;;;;2.30;2.10;;;22.30;55.00;;;;;;5034052;28;20441;-85
2023/12/06 05:42:26;;;;;;;2.27;2.07;;;22.30;55.00;;;;;;5033890;28;20457;-89
2023/12/06 05:44:53;;;;;;;2.00;1.87;;;22.30;54.90;;;;;;5033754;28;20470;-85
2023/12/06 05:47:20;;;;;;;2.30;2.20;;;22.30;54.90;;;;;;5033686;28;20488;-86
2023/12/06 05:49:47;;;;;;;2.17;2.07;;;22.30;54.90;;;;;;5033841;28;20441;-85
2023/12/06 05:52:15;;;;;;;2.63;2.43;;;22.30;55.00;;;;;;5033637;28;20577;-89
2023/12/06 05:54:42;;;;;;;2.30;2.10;;;22.30;54.90;;;;;;5033911;28;20955;-85
2023/12/06 05:57:09;;;;;;;2.20;2.00;;;22.30;55.00;;;;;;5033741;28;20937;-85
2023/12/06 05:59:36;;;;;;;2.23;2.13;;;22.30;54.90;;;;;;5033538;28;20534;-85
2023/12/06 06:02:02;;;;;;;2.10;2.00;;;22.30;54.90;;;;;;5033445;28;20473;-89
2023/12/06 06:04:29;;;;;;;1.90;1.80;;;22.30;55.00;;;;;;5033379;28;20523;-89
2023/12/06 06:06:56;;;;;;;2.40;2.23;;;22.30;55.00;;;;;;5033069;28;20939;-88
2023/12/06 06:09:24;;;;;;;2.37;2.23;;;22.30;55.00;;;;;;5033237;28;20438;-89
2023/12/06 06:11:51;;;;;;;2.50;2.30;;;22.30;55.00;;;;;;5033070;28;21009;-85
2023/12/06 06:14:17;;;;;;;3.00;2.80;;;22.30;54.90;;;;;;5038353;28;21044;-85
2023/12/06 06:16:44;;;;;;;2.47;2.27;;;22.30;54.90;;;;;;5040920;28;20434;-85
2023/12/06 06:19:11;;;;;;;2.50;2.30;;;22.30;54.90;;;;;;5041195;28;20449;-85
2023/12/06 06:21:38;;;;;;;2.40;2.20;;;22.30;54.90;;;;;;5033990;28;20446;-92
2023/12/06 06:24:05;;;;;;;2.40;2.20;;;22.30;54.90;;;;;;5033659;28;20969;-85
2023/12/06 06:26:33;;;;;;;2.47;2.27;;;22.30;54.80;;;;;;5033859;28;20959;-85
2023/12/06 06:29:00;;;;;;;2.67;2.47;;;22.30;54.80;;;;;;5035154;28;20448;-84
2023/12/06 06:31:27;;;;;;;2.30;2.20;;;22.30;54.70;;;;;;5037690;28;20485;-89
2023/12/06 06:33:54;;;;;;;2.70;2.50;;;22.30;54.70;;;;;;5038685;28;20492;-86
2023/12/06 06:36:20;;;;;;;3.20;2.33;;;22.30;54.80;;;;;;5037592;28;20453;-84
2023/12/06 06:38:47;;;;;;;2.40;2.20;;;22.40;55.00;;;;;;5037839;28;20437;-89
2023/12/06 06:41:14;;;;;;;2.50;2.30;;;22.50;54.70;;;;;;5037593;28;20445;-85
2023/12/06 06:43:43;;;;;;;2.70;2.50;;;22.50;54.80;;;;;;5041320;28;20442;-85
2023/12/06 06:46:09;;;;;;;2.60;2.40;;;22.50;54.80;;;;;;5059634;28;20469;-85
2023/12/06 06:48:37;;;;;;;5.47;2.80;;;22.40;54.80;;;;;;5057632;28;20434;-85
2023/12/06 06:51:05;;;;;;;3.50;3.20;;;22.40;54.70;;;;;;5057757;28;20871;-85
2023/12/06 06:53:31;;;;;;;3.80;3.13;;;22.40;55.40;;;;;;5057227;28;20437;-86
2023/12/06 06:55:58;;;;;;;3.00;2.80;;;22.40;54.80;;;;;;5057167;28;20437;-87
2023/12/06 06:58:25;;;;;;;3.00;2.80;;;22.40;55.00;;;;;;5057261;28;20450;-85
2023/12/06 07:00:53;;;;;;;2.60;2.40;;;22.40;55.00;;;;;;5057275;28;20483;-85
2023/12/06 07:03:21;;;;;;;11.20;2.77;;;22.50;55.20;;;;;;5057247;28;20860;-85
2023/12/06 07:05:48;;;;;;;3.20;2.67;;;22.50;55.20;;;;;;5057059;28;20468;-89
2023/12/06 07:08:14;;;;;;;3.90;2.90;;;22.50;55.70;;;;;;5057068;28;20432;-85
2023/12/06 07:10:45;;;;;;;3.10;2.90;;;22.50;55.20;;;;;;5057181;28;20448;-85
2023/12/06 07:13:11;;;;;;;3.43;3.13;;;22.60;55.30;;;;;;5056782;28;20531;-85
2023/12/06 07:15:38;;;;;;;2.90;2.70;;;22.50;55.20;;;;;;5057194;28;20468;-89
2023/12/06 07:18:06;;;;;;;3.67;3.37;;;22.50;55.10;;;;;;5056988;28;20455;-85
2023/12/06 07:20:35;;;;;;;3.20;3.00;;;22.50;55.10;;;;;;5056930;28;20448;-85
2023/12/06 07:23:03;;;;;;;12.10;7.90;;;22.50;55.20;;;;;;5056822;28;20497;-89
2023/12/06 07:25:30;;;;;;;10.60;9.60;;;22.50;55.10;;;;;;5056916;28;20507;-90
2023/12/06 07:27:57;;;;;;;5.23;4.73;;;22.60;52.90;;;;;;5056479;28;20445;-88
2023/12/06 07:30:24;;;;;;;5.03;4.53;;;22.50;54.10;;;;;;5056539;28;20433;-85
2023/12/06 07:32:52;;;;;;;4.73;4.33;;;22.40;54.60;;;;;;5056589;28;20477;-88
2023/12/06 07:35:20;;;;;;;3.97;3.67;;;22.40;54.80;;;;;;5056559;28;20549;-88
2023/12/06 07:37:47;;;;;;;10.00;4.57;;;22.40;55.50;;;;;;5056396;28;20485;-88
2023/12/06 07:40:15;;;;;;;4.93;3.43;;;22.40;54.40;;;;;;5055811;28;20536;-87
2023/12/06 07:42:42;;;;;;;4.07;3.30;;;22.40;54.60;;;;;;5056495;28;20441;-86
2023/12/06 07:45:11;;;;;;;3.97;3.20;;;22.40;54.70;;;;;;5056211;28;20473;-96
2023/12/06 07:47:39;;;;;;;4.50;3.77;;;22.40;54.70;;;;;;5056856;28;20441;-90
2023/12/06 07:52:43;;;;;;;3.67;3.37;;;22.40;54.70;;;;;;5443453;23;21014;-88
2023/12/06 07:55:13;;;;;;;5.20;4.37;;;22.40;54.70;;;;;;5076931;28;20447;-95
2023/12/06 07:57:42;;;;;;;3.60;3.40;;;22.50;54.60;;;;;;5077035;28;20441;-89
2023/12/06 08:00:11;;;;;;;3.43;3.13;;;22.50;54.70;;;;;;5055373;28;20449;-90
2023/12/06 08:02:39;;;;;;;4.63;3.60;;;22.50;54.80;;;;;;5055659;28;20446;-90
2023/12/06 08:05:10;;;;;;;4.10;3.43;;;22.40;54.90;;;;;;5055722;28;20929;-86
2023/12/06 08:07:37;;;;;;;4.27;3.30;;;22.40;55.40;;;;;;5067940;28;20436;-92
2023/12/06 08:10:10;;;;;;;3.67;3.37;;;22.40;54.90;;;;;;5075450;28;20436;-89
2023/12/06 08:12:37;;;;;;;3.40;2.87;;;22.50;55.00;;;;;;5074551;28;20495;-88
2023/12/06 08:15:05;;;;;;;4.57;3.33;;;22.50;55.10;;;;;;5074092;28;20923;-88
2023/12/06 08:17:32;;;;;;;4.23;3.27;;;22.50;55.00;;;;;;5070495;28;20463;-87
2023/12/06 08:19:59;;;;;;;3.37;3.07;;;22.50;55.20;;;;;;5074757;28;20440;-90
2023/12/06 08:25:25;;;;;;;4.63;3.07;;;22.50;55.20;;;;;;5380955;22;20487;-95
2023/12/06 08:27:52;;;;;;;3.93;3.57;;;22.50;55.00;;;;;;5077437;28;20433;-93
2023/12/06 08:30:19;;;;;;;5.47;3.57;;;22.50;55.20;;;;;;5077827;28;20488;-96
2023/12/06 08:32:46;;;;;;;10.90;4.90;;;22.50;55.10;;;;;;5076223;28;20502;-91
2023/12/06 08:35:13;;;;;;;6.53;4.10;;;22.60;55.20;;;;;;5075940;28;20471;-89
2023/12/06 08:37:40;;;;;;;9.00;4.40;;;22.60;55.00;;;;;;5075983;28;20449;-92
2023/12/06 08:40:09;;;;;;;6.00;4.37;;;22.60;55.40;;;;;;5077850;28;20474;-93
2023/12/06 08:42:37;;;;;;;5.17;3.90;;;22.60;55.30;;;;;;5075400;28;20437;-87
2023/12/06 08:45:05;;;;;;;11.03;4.77;;;22.60;55.20;;;;;;5074906;28;20447;-87
2023/12/06 08:47:33;;;;;;;9.80;4.33;;;22.60;55.20;;;;;;5076313;28;20446;-88
2023/12/06 08:50:00;;;;;;;8.20;4.20;;;22.60;55.30;;;;;;5076008;28;20441;-90
2023/12/06 08:52:27;;;;;;;5.90;3.47;;;22.60;55.30;;;;;;5074938;28;21025;-94
2023/12/06 09:00:57;;;;;;;6.80;4.10;;;22.60;55.40;;;;;;4925772;28;20534;-91
2023/12/06 09:03:24;;;;;;;6.90;4.50;;;22.50;55.50;;;;;;5010677;28;20435;-85
2023/12/06 09:05:50;;;;;;;8.73;4.80;;;22.50;55.60;;;;;;5030207;28;20438;-89
2023/12/06 09:08:17;;;;;;;18.77;4.43;;;22.60;55.50;;;;;;5014485;28;20526;-90
2023/12/06 09:10:44;;;;;;;10.83;4.57;;;22.50;55.50;;;;;;5013416;28;20453;-93
2023/12/06 09:13:11;;;;;;;6.50;4.03;;;22.60;55.50;;;;;;5027448;28;20485;-86
2023/12/06 09:15:38;;;;;;;7.63;3.70;;;22.60;55.30;;;;;;5031998;28;20460;-89
2023/12/06 09:18:06;;;;;;;5.60;3.47;;;22.60;55.50;;;;;;5031913;28;20446;-86
2023/12/06 09:20:33;;;;;;;10.53;4.10;;;22.60;55.50;;;;;;5032215;28;20438;-88
2023/12/06 09:23:00;;;;;;;5.53;3.93;;;22.60;55.50;;;;;;5032134;28;20809;-90
2023/12/06 09:25:26;;;;;;;6.73;3.90;;;22.60;55.50;;;;;;5031647;28;20508;-85
2023/12/06 09:27:53;;;;;;;11.03;3.83;;;22.60;55.40;;;;;;5039767;28;20755;-90
2023/12/06 09:30:20;;;;;;;11.37;3.63;;;22.60;55.40;;;;;;5073903;28;20480;-90
2023/12/06 09:32:47;;;;;;;9.20;4.00;;;22.60;55.40;;;;;;5074241;28;20510;-86
2023/12/06 09:35:15;;;;;;;9.13;4.07;;;22.60;55.40;;;;;;5073934;28;20943;-91
2023/12/06 09:37:43;;;;;;;4.73;3.13;;;22.60;55.40;;;;;;5074080;28;20440;-86
2023/12/06 09:40:11;;;;;;;6.30;4.33;;;22.60;55.40;;;;;;5073777;28;20440;-87
2023/12/06 09:42:40;;;;;;;10.23;4.00;;;22.60;55.40;;;;;;5073951;28;20448;-87
2023/12/06 09:45:08;;;;;;;6.30;3.90;;;22.60;55.50;;;;;;5073802;28;20440;-88
2023/12/06 09:47:36;;;;;;;5.33;3.53;;;22.60;55.40;;;;;;5073616;28;20440;-87
2023/12/06 09:50:03;;;;;;;5.30;3.00;;;22.60;55.40;;;;;;5073569;28;20432;-88
2023/12/06 09:52:31;;;;;;;3.67;3.30;;;22.60;55.40;;;;;;5073448;28;20998;-88
2023/12/06 09:54:59;;;;;;;5.50;4.33;;;22.60;55.30;;;;;;5073580;28;20463;-89
2023/12/06 09:57:26;;;;;;;6.40;2.90;;;22.60;55.30;;;;;;5073756;28;20448;-86
2023/12/06 09:59:53;;;;;;;9.40;4.20;;;22.60;55.30;;;;;;5073659;28;20564;-88
2023/12/06 10:02:19;;;;;;;6.43;2.77;;;22.60;55.40;;;;;;5073583;28;20791;-88
2023/12/06 10:04:46;;;;;;;3.93;3.17;;;22.70;55.40;;;;;;5073524;28;20449;-89
2023/12/06 10:07:13;;;;;;;4.43;3.47;;;22.70;55.40;;;;;;5073427;28;20614;-91
2023/12/06 10:09:49;;;;;;;9.10;4.13;;;22.70;55.40;;;;;;5073843;28;20811;-91
2023/12/06 10:12:16;;;;;;;4.73;3.27;;;22.70;55.30;;;;;;5082968;28;20887;-85
2023/12/06 10:14:43;;;;;;;6.67;3.67;;;22.70;55.30;;;;;;5093673;28;20424;-85
2023/12/06 10:17:10;;;;;;;5.80;3.23;;;22.70;55.30;;;;;;5093513;28;20805;-82
2023/12/06 10:19:38;;;;;;;3.83;3.43;;;22.70;55.20;;;;;;5093473;28;20428;-85
2023/12/06 10:22:05;;;;;;;4.20;3.40;;;22.70;55.20;;;;;;5093786;28;20793;-85
2023/12/06 10:24:32;;;;;;;5.80;3.33;;;22.70;55.20;;;;;;5089075;28;20483;-85
2023/12/06 10:27:08;;;;;;;4.90;3.40;;;22.70;55.10;;;;;;5073059;28;20444;-87
2023/12/06 10:29:35;;;;;;;4.30;3.30;;;22.70;55.20;;;;;;5073620;28;20437;-84
2023/12/06 10:32:03;;;;;;;3.63;2.83;;;22.70;55.80;;;;;;5073213;28;20436;-86
2023/12/06 10:34:31;;;;;;;5.53;3.10;;;22.70;55.20;;;;;;5073381;28;20444;-89
2023/12/06 10:37:00;;;;;;;4.90;3.10;;;22.70;55.20;;;;;;5073536;28;20792;-90
2023/12/06 10:39:27;;;;;;;6.13;3.20;;;22.70;55.20;;;;;;5073620;28;20435;-85
2023/12/06 10:41:56;;;;;;;3.40;2.57;;;22.70;55.30;;;;;;5072886;28;20482;-86
2023/12/06 10:44:25;;;;;;;3.63;2.77;;;22.70;55.30;;;;;;5072835;28;20428;-95
2023/12/06 10:47:00;;;;;;;4.63;2.53;;;22.70;55.20;;;;;;5074827;28;20872;-96
2023/12/06 10:49:29;;;;;;;3.23;2.90;;;22.60;54.00;;;;;;5073165;28;20543;-90
2023/12/06 10:58:24;;;;;;;5.83;3.60;;;22.70;55.00;;;;;;4992215;28;20419;-86
2023/12/06 11:00:54;;;;;;;3.23;2.93;;;22.60;55.20;;;;;;5044448;28;20461;-85
2023/12/06 11:03:21;;;;;;;2.50;2.30;;;22.70;55.20;;;;;;5061068;28;20483;-86
2023/12/06 11:05:54;;;;;;;3.10;2.47;;;22.70;55.10;;;;;;5079561;28;20425;-95
2023/12/06 11:08:36;;;;;;;3.60;3.03;;;22.70;55.10;;;;;;5086813;28;20468;-90
2023/12/06 11:11:23;;;;;;;8.60;2.80;;;22.80;55.30;;;;;;5080618;28;20438;-89
2023/12/06 11:13:59;;;;;;;5.73;3.70;;;22.70;54.90;;;;;;5093310;28;20994;-85
2023/12/06 11:16:47;;;;;;;7.00;6.20;;;22.80;54.70;;;;;;5082195;28;20452;-85
2023/12/06 11:19:15;;;;;;;17.03;12.33;;;22.70;54.50;;;;;;5096253;28;20431;-85
2023/12/06 11:21:42;;;;;;;12.63;10.40;;;22.70;54.50;;;;;;5098044;28;20439;-90
2023/12/06 11:24:09;;;;;;;15.73;10.70;;;22.60;54.50;;;;;;5101888;28;20463;-86
2023/12/06 11:26:36;;;;;;;9.23;7.77;;;22.60;54.50;;;;;;5096670;28;20475;-86
2023/12/06 11:29:04;;;;;;;11.53;8.17;;;22.60;54.40;;;;;;5097179;28;20432;-86
2023/12/06 11:31:36;;;;;;;9.10;8.20;;;22.60;54.70;;;;;;5097058;28;20478;-86
2023/12/06 11:34:05;;;;;;;9.83;7.93;;;22.50;54.70;;;;;;5096605;28;20536;-88
2023/12/06 11:36:32;;;;;;;14.20;7.00;;;22.60;54.90;;;;;;5096383;28;20439;-86
2023/12/06 11:38:59;;;;;;;13.77;7.70;;;22.60;55.00;;;;;;5096706;28;20561;-86
2023/12/06 11:41:26;;;;;;;10.97;7.50;;;22.50;54.90;;;;;;5096274;28;20449;-88
2023/12/06 11:43:54;;;;;;;9.13;6.90;;;22.60;55.10;;;;;;5096593;28;20439;-85
2023/12/06 11:46:23;;;;;;;16.03;6.63;;;22.60;55.00;;;;;;5096037;28;20450;-87
2023/12/06 11:48:51;;;;;;;10.93;6.87;;;22.60;55.00;;;;;;5095747;28;20478;-86
2023/12/06 11:51:19;;;;;;;10.40;7.60;;;22.70;55.10;;;;;;5096144;28;20432;-86
2023/12/06 11:53:46;;;;;;;12.50;7.53;;;22.70;54.80;;;;;;5096105;28;20997;-84
2023/12/06 11:56:20;;;;;;;8.10;6.23;;;22.80;54.90;;;;;;5064182;28;20441;-86
2023/12/06 11:58:50;;;;;;;9.93;6.10;;;22.70;55.00;;;;;;5075888;28;20959;-86
2023/12/06 12:01:17;;;;;;;7.73;5.47;;;22.70;54.90;;;;;;5075626;28;20453;-86
2023/12/06 12:03:45;;;;;;;11.23;6.60;;;22.70;54.70;;;;;;5074466;28;20448;-86
2023/12/06 12:06:15;;;;;;;11.23;6.47;;;22.70;55.00;;;;;;5075911;28;21019;-90
2023/12/06 12:08:45;;;;;;;9.53;5.20;;;22.80;55.00;;;;;;5075532;28;20456;-88
2023/12/06 12:11:14;;;;;;;10.30;5.40;;;22.80;54.90;;;;;;5068812;28;20936;-89
